岡山グライダークラブ活動状況掲示板あなたは無料カウンター人目の訪問者です

岡山グライダークラブ
岡山市浦安南町639-1 岡南飛行場
 使用機:シャイベ式 SF25C型 ファルケ   JA2330
      ヴァレンティン式17E型 タイフーン  JA2342
 練習日:毎日曜日  クラブルーム:電話 086-265-1810
この掲示板は岡山グライダークラブの活動状況をお知らせする掲示板です。
!!!この掲示板は投稿規制をしています。!!!
クラブ関連各種情報は 岡山グライダークラブクラブルーム      を       .
  ブリーフイング情報は  岡山グライダークラブブリーフィングルーム  をご覧下さい。 .
※写真はクリックすると拡大して見ることが出来ます。
岡南飛行場へのアクセス等は 岡南飛行場管理事務所 をご覧ください。
クラブの ホームページ ができました。

 
06月14日
by OGC at 2020/6/14(日) 21:18:47 No.20200614211631  削除コメント
1477 x 1108 x 96,059バイト <この画像は大きいので別画面で表示します>
No.1

06月14日
本日の参加者
  会員       9名
  その他      0名


@本日の様子




METAR
RJOB 140000Z 20005KT 170V230 1500 R07/P2000N BR BCFG FEW000 SCT003 BKN010 23/23 Q1008
RJOT 140000Z VRB01KT 9999 FEW001 SCT180 BKN/// 26/24 Q1008
RJOA 140000Z 23003KT 190V270 9999 FEW001 SCT020 BKN170 25/23 Q1009
TAF
RJOB 132311Z 1400/1506 23009KT 1500 BR BCFG FEW000 SCT005 BKN008
     TEMPO 1400/1401 0700 FG FEW000 SCT002 BKN005
     BECMG 1401/1403 9000 NSW FEW005 SCT010 BKN020
     TEMPO 1406/1412 3000 TSRA BR FEW001 BKN008 BKN015 FEW020CB
RJOT 132309Z 1400/1506 26008KT 9999 FEW010 SCT035
     TEMPO 1408/1411 4000 SHRA BR
     BECMG 1409/1411 26020KT
     TEMPO 1411/1415 26021G32KT
RJOA 132306Z 1400/1506 23007KT 8000 -SHRA FEW001 SCT008 BKN015
     TEMPO 1405/1408 4000 SHRA BR BCFG FEW000 SCT003 BKN005
     TEMPO 1408/1410 3000 TSRA BR BCFG FEW000 SCT003 BKN005 FEW020CB


本日は大勢の方が雨で飛べないと予想し、先週の記録更新から一転、参加会員9名に半減しました。
そこは「晴れの国、岡山」のパワーがさく裂し、15時頃までフライトできました。




解散    15:00

1番機  10:15離陸 撤収機  14:35着陸 

SF25C JA2330 ファルケ     07Flt.2h25min  
17E   JA2342 タイフーン    02Flt.0h40min  
合計                    09Flt.3h05min

    << 戻る || ホームページ || 最新の掲示板へ